sensor_id;sensor_type;location;lat;lon;timestamp;pressure;altitude;pressure_sealevel;temperature;humidity
31082;BME280;17737;52.586;13.284;2022-11-20T00:00:54;100680.81;;;-0.11;91.69
31082;BME280;17737;52.586;13.284;2022-11-20T00:03:22;100683.16;;;-0.07;91.18
31082;BME280;17737;52.586;13.284;2022-11-20T00:05:50;100678.28;;;-0.13;90.75
31082;BME280;17737;52.586;13.284;2022-11-20T00:08:17;100678.47;;;-0.16;90.77
31082;BME280;17737;52.586;13.284;2022-11-20T00:10:46;100682.72;;;-0.13;90.90
31082;BME280;17737;52.586;13.284;2022-11-20T00:13:14;100678.38;;;-0.14;90.33
31082;BME280;17737;52.586;13.284;2022-11-20T00:15:42;100676.78;;;-0.17;90.56
31082;BME280;17737;52.586;13.284;2022-11-20T00:18:10;100671.38;;;-0.15;90.82
31082;BME280;17737;52.586;13.284;2022-11-20T00:20:37;100675.72;;;-0.14;91.03
31082;BME280;17737;52.586;13.284;2022-11-20T00:23:05;100675.72;;;-0.14;90.67
31082;BME280;17737;52.586;13.284;2022-11-20T00:25:33;100672.94;;;-0.25;90.93
31082;BME280;17737;52.586;13.284;2022-11-20T00:28:03;100674.00;;;-0.28;90.62
31082;BME280;17737;52.586;13.284;2022-11-20T00:30:31;100682.50;;;-0.23;90.06
31082;BME280;17737;52.586;13.284;2022-11-20T00:32:58;100674.81;;;-0.27;89.92
31082;BME280;17737;52.586;13.284;2022-11-20T00:35:26;100679.94;;;-0.24;89.50
31082;BME280;17737;52.586;13.284;2022-11-20T00:37:54;100676.13;;;-0.20;90.12
31082;BME280;17737;52.586;13.284;2022-11-20T00:40:22;100680.88;;;-0.25;89.86
31082;BME280;17737;52.586;13.284;2022-11-20T00:42:49;100679.19;;;-0.26;89.68
31082;BME280;17737;52.586;13.284;2022-11-20T00:45:19;100684.38;;;-0.25;89.44
31082;BME280;17737;52.586;13.284;2022-11-20T00:47:46;100679.72;;;-0.21;89.83
31082;BME280;17737;52.586;13.284;2022-11-20T00:50:14;100675.47;;;-0.24;90.06
31082;BME280;17737;52.586;13.284;2022-11-20T00:52:42;100678.00;;;-0.22;89.87
31082;BME280;17737;52.586;13.284;2022-11-20T00:55:10;100681.84;;;-0.26;89.88
31082;BME280;17737;52.586;13.284;2022-11-20T00:57:38;100674.66;;;-0.24;89.39
31082;BME280;17737;52.586;13.284;2022-11-20T01:00:07;100678.22;;;-0.25;89.66
31082;BME280;17737;52.586;13.284;2022-11-20T01:02:36;100678.88;;;-0.22;89.37
31082;BME280;17737;52.586;13.284;2022-11-20T01:05:04;100678.66;;;-0.31;89.01
31082;BME280;17737;52.586;13.284;2022-11-20T01:07:32;100680.34;;;-0.30;89.40
31082;BME280;17737;52.586;13.284;2022-11-20T01:10:00;100673.78;;;-0.25;89.11
31082;BME280;17737;52.586;13.284;2022-11-20T01:12:28;100670.19;;;-0.24;88.67
31082;BME280;17737;52.586;13.284;2022-11-20T01:14:55;100670.44;;;-0.14;88.61
31082;BME280;17737;52.586;13.284;2022-11-20T01:17:23;100675.72;;;-0.14;89.09
31082;BME280;17737;52.586;13.284;2022-11-20T01:19:52;100668.94;;;-0.18;88.80
31082;BME280;17737;52.586;13.284;2022-11-20T01:22:20;100671.56;;;-0.18;88.87
31082;BME280;17737;52.586;13.284;2022-11-20T01:24:48;100669.78;;;-0.18;89.04
31082;BME280;17737;52.586;13.284;2022-11-20T01:27:15;100667.91;;;-0.16;89.13
31082;BME280;17737;52.586;13.284;2022-11-20T01:29:43;100670.38;;;-0.27;88.86
31082;BME280;17737;52.586;13.284;2022-11-20T01:32:11;100666.16;;;-0.29;88.53
31082;BME280;17737;52.586;13.284;2022-11-20T01:34:39;100655.56;;;-0.29;88.33
31082;BME280;17737;52.586;13.284;2022-11-20T01:37:08;100657.25;;;-0.28;88.60
31082;BME280;17737;52.586;13.284;2022-11-20T01:39:35;100664.78;;;-0.22;89.15
31082;BME280;17737;52.586;13.284;2022-11-20T01:42:03;100650.06;;;-0.26;88.51
31082;BME280;17737;52.586;13.284;2022-11-20T01:44:53;100651.75;;;-0.25;88.37
31082;BME280;17737;52.586;13.284;2022-11-20T01:47:25;100653.88;;;-0.30;88.21
31082;BME280;17737;52.586;13.284;2022-11-20T01:49:56;100656.41;;;-0.29;88.49
31082;BME280;17737;52.586;13.284;2022-11-20T01:52:31;100652.19;;;-0.31;88.95
31082;BME280;17737;52.586;13.284;2022-11-20T01:55:02;100652.41;;;-0.22;88.42
31082;BME280;17737;52.586;13.284;2022-11-20T01:57:32;100644.56;;;-0.23;89.21
31082;BME280;17737;52.586;13.284;2022-11-20T02:00:04;100650.50;;;-0.20;88.81
31082;BME280;17737;52.586;13.284;2022-11-20T02:02:33;100646.66;;;-0.28;88.82
31082;BME280;17737;52.586;13.284;2022-11-20T02:05:07;100643.69;;;-0.36;88.50
31082;BME280;17737;52.586;13.284;2022-11-20T02:07:38;100640.19;;;-0.37;88.78
31082;BME280;17737;52.586;13.284;2022-11-20T02:10:06;100638.19;;;-0.33;88.55
31082;BME280;17737;52.586;13.284;2022-11-20T02:12:34;100634.47;;;-0.31;87.73
31082;BME280;17737;52.586;13.284;2022-11-20T02:15:19;100646.34;;;-0.36;88.14
31082;BME280;17737;52.586;13.284;2022-11-20T02:17:54;100637.53;;;-0.37;88.65
31082;BME280;17737;52.586;13.284;2022-11-20T02:20:22;100645.81;;;-0.29;89.71
31082;BME280;17737;52.586;13.284;2022-11-20T02:22:55;100640.34;;;-0.26;88.86
31082;BME280;17737;52.586;13.284;2022-11-20T02:25:26;100629.66;;;-0.24;88.66
31082;BME280;17737;52.586;13.284;2022-11-20T02:27:55;100638.22;;;-0.21;88.91
31082;BME280;17737;52.586;13.284;2022-11-20T02:30:23;100635.66;;;-0.22;88.70
31082;BME280;17737;52.586;13.284;2022-11-20T02:32:52;100636.63;;;-0.23;88.60
31082;BME280;17737;52.586;13.284;2022-11-20T02:35:43;100635.75;;;-0.24;88.87
31082;BME280;17737;52.586;13.284;2022-11-20T02:38:11;100630.72;;;-0.14;87.86
31082;BME280;17737;52.586;13.284;2022-11-20T02:40:42;100638.31;;;-0.22;88.56
31082;BME280;17737;52.586;13.284;2022-11-20T02:43:10;100633.44;;;-0.28;88.36
31082;BME280;17737;52.586;13.284;2022-11-20T02:45:38;100622.63;;;-0.25;88.66
31082;BME280;17737;52.586;13.284;2022-11-20T02:48:06;100630.56;;;-0.25;87.95
31082;BME280;17737;52.586;13.284;2022-11-20T02:50:37;100630.34;;;-0.35;87.81
31082;BME280;17737;52.586;13.284;2022-11-20T02:53:05;100634.59;;;-0.32;88.33
31082;BME280;17737;52.586;13.284;2022-11-20T02:55:33;100640.53;;;-0.29;88.11
31082;BME280;17737;52.586;13.284;2022-11-20T02:58:03;100638.84;;;-0.30;87.93
31082;BME280;17737;52.586;13.284;2022-11-20T03:00:30;100635.88;;;-0.25;88.63
31082;BME280;17737;52.586;13.284;2022-11-20T03:02:58;100635.44;;;-0.32;88.69
31082;BME280;17737;52.586;13.284;2022-11-20T03:05:26;100636.09;;;-0.28;88.52
31082;BME280;17737;52.586;13.284;2022-11-20T03:07:53;100638.41;;;-0.36;88.34
31082;BME280;17737;52.586;13.284;2022-11-20T03:10:21;100629.19;;;-0.31;88.70
31082;BME280;17737;52.586;13.284;2022-11-20T03:12:52;100623.34;;;-0.36;88.62
31082;BME280;17737;52.586;13.284;2022-11-20T03:15:22;100625.50;;;-0.28;87.85
31082;BME280;17737;52.586;13.284;2022-11-20T03:17:52;100618.81;;;-0.34;88.33
31082;BME280;17737;52.586;13.284;2022-11-20T03:20:20;100624.00;;;-0.32;88.40
31082;BME280;17737;52.586;13.284;2022-11-20T03:22:48;100625.06;;;-0.35;88.44
31082;BME280;17737;52.586;13.284;2022-11-20T03:25:16;100620.31;;;-0.30;88.53
31082;BME280;17737;52.586;13.284;2022-11-20T03:27:43;100612.59;;;-0.33;88.44
31082;BME280;17737;52.586;13.284;2022-11-20T03:30:12;100612.38;;;-0.30;88.66
31082;BME280;17737;52.586;13.284;2022-11-20T03:32:41;100614.16;;;-0.30;87.83
31082;BME280;17737;52.586;13.284;2022-11-20T03:35:09;100611.63;;;-0.32;87.87
31082;BME280;17737;52.586;13.284;2022-11-20T03:37:37;100613.00;;;-0.26;87.67
31082;BME280;17737;52.586;13.284;2022-11-20T03:40:06;100614.69;;;-0.25;87.57
31082;BME280;17737;52.586;13.284;2022-11-20T03:42:34;100611.72;;;-0.33;87.80
31082;BME280;17737;52.586;13.284;2022-11-20T03:45:15;100606.22;;;-0.30;87.90
31082;BME280;17737;52.586;13.284;2022-11-20T03:47:45;100602.81;;;-0.32;88.04
31082;BME280;17737;52.586;13.284;2022-11-20T03:50:13;100600.91;;;-0.30;87.99
31082;BME280;17737;52.586;13.284;2022-11-20T03:52:41;100601.44;;;-0.38;87.94
31082;BME280;17737;52.586;13.284;2022-11-20T03:55:09;100603.13;;;-0.37;87.75
31082;BME280;17737;52.586;13.284;2022-11-20T03:57:37;100601.94;;;-0.45;88.41
31082;BME280;17737;52.586;13.284;2022-11-20T04:00:06;100595.63;;;-0.43;88.09
31082;BME280;17737;52.586;13.284;2022-11-20T04:02:33;100598.28;;;-0.43;87.66
31082;BME280;17737;52.586;13.284;2022-11-20T04:05:03;100596.88;;;-0.48;88.24
31082;BME280;17737;52.586;13.284;2022-11-20T04:07:33;100601.19;;;-0.47;87.86
31082;BME280;17737;52.586;13.284;2022-11-20T04:10:01;100598.97;;;-0.53;87.92
31082;BME280;17737;52.586;13.284;2022-11-20T04:12:31;100598.97;;;-0.53;88.25
31082;BME280;17737;52.586;13.284;2022-11-20T04:14:59;100605.31;;;-0.56;87.59
31082;BME280;17737;52.586;13.284;2022-11-20T04:17:27;100603.63;;;-0.57;87.67
31082;BME280;17737;52.586;13.284;2022-11-20T04:19:55;100605.63;;;-0.60;87.97
31082;BME280;17737;52.586;13.284;2022-11-20T04:22:24;100602.97;;;-0.60;87.74
31082;BME280;17737;52.586;13.284;2022-11-20T04:24:52;100603.63;;;-0.57;87.91
31082;BME280;17737;52.586;13.284;2022-11-20T04:27:20;100605.72;;;-0.62;87.79
31082;BME280;17737;52.586;13.284;2022-11-20T04:29:48;100604.00;;;-0.63;87.75
31082;BME280;17737;52.586;13.284;2022-11-20T04:32:15;100605.84;;;-0.63;87.99
31082;BME280;17737;52.586;13.284;2022-11-20T04:34:43;100596.81;;;-0.61;87.58
31082;BME280;17737;52.586;13.284;2022-11-20T04:37:11;100599.78;;;-0.65;87.88
31082;BME280;17737;52.586;13.284;2022-11-20T04:39:40;100595.97;;;-0.61;87.89
31082;BME280;17737;52.586;13.284;2022-11-20T04:42:08;100594.28;;;-0.62;87.92
31082;BME280;17737;52.586;13.284;2022-11-20T04:44:53;100591.63;;;-0.62;87.95
31082;BME280;17737;52.586;13.284;2022-11-20T04:47:21;100591.63;;;-0.62;87.85
31082;BME280;17737;52.586;13.284;2022-11-20T04:49:49;100590.41;;;-0.57;88.17
31082;BME280;17737;52.586;13.284;2022-11-20T04:52:17;100598.63;;;-0.61;88.09
31082;BME280;17737;52.586;13.284;2022-11-20T04:54:46;100596.94;;;-0.62;88.44
31082;BME280;17737;52.586;13.284;2022-11-20T04:57:14;100584.78;;;-0.65;88.79
31082;BME280;17737;52.586;13.284;2022-11-20T04:59:42;100589.44;;;-0.56;88.46
31082;BME280;17737;52.586;13.284;2022-11-20T05:02:11;100580.75;;;-0.58;88.46
31082;BME280;17737;52.586;13.284;2022-11-20T05:04:38;100586.50;;;-0.51;88.41
31082;BME280;17737;52.586;13.284;2022-11-20T05:07:06;100583.53;;;-0.47;88.22
31082;BME280;17737;52.586;13.284;2022-11-20T05:09:34;100584.56;;;-0.49;88.59
31082;BME280;17737;52.586;13.284;2022-11-20T05:12:03;100580.78;;;-0.45;88.38
31082;BME280;17737;52.586;13.284;2022-11-20T05:14:31;100586.81;;;-0.43;88.04
31082;BME280;17737;52.586;13.284;2022-11-20T05:16:59;100570.72;;;-0.40;88.07
31082;BME280;17737;52.586;13.284;2022-11-20T05:19:26;100570.72;;;-0.40;88.06
31082;BME280;17737;52.586;13.284;2022-11-20T05:21:54;100568.09;;;-0.40;88.06
31082;BME280;17737;52.586;13.284;2022-11-20T05:24:22;100562.03;;;-0.42;88.60
31082;BME280;17737;52.586;13.284;2022-11-20T05:26:49;100558.25;;;-0.38;88.18
31082;BME280;17737;52.586;13.284;2022-11-20T05:29:19;100559.09;;;-0.38;88.34
31082;BME280;17737;52.586;13.284;2022-11-20T05:31:47;100565.75;;;-0.32;87.87
31082;BME280;17737;52.586;13.284;2022-11-20T05:34:14;100561.44;;;-0.33;88.43
31082;BME280;17737;52.586;13.284;2022-11-20T05:36:42;100556.34;;;-0.36;87.91
31082;BME280;17737;52.586;13.284;2022-11-20T05:39:10;100560.56;;;-0.34;88.35
31082;BME280;17737;52.586;13.284;2022-11-20T05:41:38;100554.09;;;-0.42;88.27
31082;BME280;17737;52.586;13.284;2022-11-20T05:44:05;100561.84;;;-0.39;88.51
31082;BME280;17737;52.586;13.284;2022-11-20T05:46:34;100562.56;;;-0.37;88.85
31082;BME280;17737;52.586;13.284;2022-11-20T05:49:02;100553.59;;;-0.35;88.23
31082;BME280;17737;52.586;13.284;2022-11-20T05:51:30;100544.59;;;-0.32;88.20
31082;BME280;17737;52.586;13.284;2022-11-20T05:53:58;100544.47;;;-0.31;88.07
31082;BME280;17737;52.586;13.284;2022-11-20T05:56:26;100546.50;;;-0.34;88.07
31082;BME280;17737;52.586;13.284;2022-11-20T05:58:53;100549.34;;;-0.37;88.40
31082;BME280;17737;52.586;13.284;2022-11-20T06:01:23;100545.44;;;-0.32;88.21
31082;BME280;17737;52.586;13.284;2022-11-20T06:03:53;100539.94;;;-0.41;88.54
31082;BME280;17737;52.586;13.284;2022-11-20T06:06:21;100542.91;;;-0.33;88.23
31082;BME280;17737;52.586;13.284;2022-11-20T06:08:49;100534.22;;;-0.35;87.98
31082;BME280;17737;52.586;13.284;2022-11-20T06:11:17;100540.38;;;-0.35;87.79
31082;BME280;17737;52.586;13.284;2022-11-20T06:13:46;100530.81;;;-0.37;88.34
31082;BME280;17737;52.586;13.284;2022-11-20T06:16:15;100541.00;;;-0.31;87.81
31082;BME280;17737;52.586;13.284;2022-11-20T06:18:43;100540.25;;;-0.33;88.20
31082;BME280;17737;52.586;13.284;2022-11-20T06:21:14;100538.66;;;-0.36;88.19
31082;BME280;17737;52.586;13.284;2022-11-20T06:23:43;100537.06;;;-0.38;88.35
31082;BME280;17737;52.586;13.284;2022-11-20T06:26:14;100545.34;;;-0.30;87.80
31082;BME280;17737;52.586;13.284;2022-11-20T06:28:42;100548.41;;;-0.36;88.22
31082;BME280;17737;52.586;13.284;2022-11-20T06:31:11;100541.00;;;-0.31;87.84
31082;BME280;17737;52.586;13.284;2022-11-20T06:33:39;100543.66;;;-0.31;87.62
31082;BME280;17737;52.586;13.284;2022-11-20T06:36:08;100540.16;;;-0.32;88.21
31082;BME280;17737;52.586;13.284;2022-11-20T06:38:39;100534.09;;;-0.34;87.98
31082;BME280;17737;52.586;13.284;2022-11-20T06:41:10;100542.69;;;-0.30;87.65
31082;BME280;17737;52.586;13.284;2022-11-20T06:43:38;100547.44;;;-0.35;88.08
31082;BME280;17737;52.586;13.284;2022-11-20T06:46:06;100540.69;;;-0.39;88.41
31082;BME280;17737;52.586;13.284;2022-11-20T06:48:34;100534.31;;;-0.37;87.71
31082;BME280;17737;52.586;13.284;2022-11-20T06:51:03;100531.66;;;-0.37;88.07
31082;BME280;17737;52.586;13.284;2022-11-20T06:53:31;100528.91;;;-0.35;87.95
31082;BME280;17737;52.586;13.284;2022-11-20T06:56:00;100527.97;;;-0.34;88.13
31082;BME280;17737;52.586;13.284;2022-11-20T06:58:29;100538.66;;;-0.36;88.66
31082;BME280;17737;52.586;13.284;2022-11-20T07:00:58;100524.69;;;-0.25;88.43
31082;BME280;17737;52.586;13.284;2022-11-20T07:03:26;100532.22;;;-0.19;87.90
31082;BME280;17737;52.586;13.284;2022-11-20T07:05:55;100524.47;;;-0.22;88.17
31082;BME280;17737;52.586;13.284;2022-11-20T07:08:24;100536.03;;;-0.23;87.64
31082;BME280;17737;52.586;13.284;2022-11-20T07:10:52;100527.88;;;-0.20;87.21
31082;BME280;17737;52.586;13.284;2022-11-20T07:13:21;100536.13;;;-0.25;87.83
31082;BME280;17737;52.586;13.284;2022-11-20T07:15:49;100539.84;;;-0.15;88.18
31082;BME280;17737;52.586;13.284;2022-11-20T07:18:16;100547.03;;;-0.17;88.01
31082;BME280;17737;52.586;13.284;2022-11-20T07:20:44;100536.16;;;-0.12;88.38
31082;BME280;17737;52.586;13.284;2022-11-20T07:23:12;100540.38;;;-0.10;88.00
31082;BME280;17737;52.586;13.284;2022-11-20T07:25:40;100539.84;;;-0.02;87.73
31082;BME280;17737;52.586;13.284;2022-11-20T07:28:07;100537.19;;;-0.02;87.55
31082;BME280;17737;52.586;13.284;2022-11-20T07:30:38;100524.47;;;0.03;87.95
31082;BME280;17737;52.586;13.284;2022-11-20T07:33:06;100531.47;;;0.04;87.65
31082;BME280;17737;52.586;13.284;2022-11-20T07:35:33;100532.31;;;0.05;87.36
31082;BME280;17737;52.586;13.284;2022-11-20T07:38:02;100533.19;;;0.05;87.71
31082;BME280;17737;52.586;13.284;2022-11-20T07:40:30;100533.69;;;0.10;87.42
31082;BME280;17737;52.586;13.284;2022-11-20T07:42:57;100527.88;;;0.05;87.81
31082;BME280;17737;52.586;13.284;2022-11-20T07:45:25;100525.41;;;0.02;87.06
31082;BME280;17737;52.586;13.284;2022-11-20T07:47:54;100520.00;;;0.03;86.52
31082;BME280;17737;52.586;13.284;2022-11-20T07:50:22;100520.13;;;0.02;87.43
31082;BME280;17737;52.586;13.284;2022-11-20T07:52:50;100514.63;;;0.05;87.76
31082;BME280;17737;52.586;13.284;2022-11-20T07:55:18;100526.06;;;0.06;86.90
31082;BME280;17737;52.586;13.284;2022-11-20T07:57:46;100523.63;;;0.15;86.64
31082;BME280;17737;52.586;13.284;2022-11-20T08:00:21;100525.53;;;0.13;86.31
31082;BME280;17737;52.586;13.284;2022-11-20T08:02:49;100521.91;;;0.14;86.12
31082;BME280;17737;52.586;13.284;2022-11-20T08:05:18;100518.75;;;0.09;86.23
31082;BME280;17737;52.586;13.284;2022-11-20T08:07:46;100525.63;;;0.12;85.96
31082;BME280;17737;52.586;13.284;2022-11-20T08:10:15;100511.25;;;0.03;86.38
31082;BME280;17737;52.586;13.284;2022-11-20T08:12:44;100512.91;;;0.04;86.09
31082;BME280;17737;52.586;13.284;2022-11-20T08:15:30;100515.47;;;0.06;85.79
31082;BME280;17737;52.586;13.284;2022-11-20T08:18:02;100524.03;;;0.09;86.31
31082;BME280;17737;52.586;13.284;2022-11-20T08:20:52;100526.47;;;0.12;86.73
31082;BME280;17737;52.586;13.284;2022-11-20T08:23:19;100519.81;;;0.07;86.56
31082;BME280;17737;52.586;13.284;2022-11-20T08:25:49;100522.06;;;0.00;86.85
31082;BME280;17737;52.586;13.284;2022-11-20T08:28:17;100523.41;;;0.06;86.17
31082;BME280;17737;52.586;13.284;2022-11-20T08:30:47;100523.22;;;-0.04;85.78
31082;BME280;17737;52.586;13.284;2022-11-20T08:33:16;100512.19;;;0.02;85.54
31082;BME280;17737;52.586;13.284;2022-11-20T08:35:45;100508.47;;;0.05;85.25
31082;BME280;17737;52.586;13.284;2022-11-20T08:38:14;100514.31;;;0.10;85.52
31082;BME280;17737;52.586;13.284;2022-11-20T08:40:42;100519.03;;;0.17;85.56
31082;BME280;17737;52.586;13.284;2022-11-20T08:43:30;100518.00;;;0.20;85.75
31082;BME280;17737;52.586;13.284;2022-11-20T08:45:58;100507.06;;;0.24;85.45
31082;BME280;17737;52.586;13.284;2022-11-20T08:48:25;100515.75;;;0.26;85.58
31082;BME280;17737;52.586;13.284;2022-11-20T08:50:53;100510.75;;;0.34;85.71
31082;BME280;17737;52.586;13.284;2022-11-20T08:53:26;100506.75;;;0.29;85.21
31082;BME280;17737;52.586;13.284;2022-11-20T08:55:54;100508.03;;;0.23;85.63
31082;BME280;17737;52.586;13.284;2022-11-20T08:58:21;100515.75;;;0.26;85.05
31082;BME280;17737;52.586;13.284;2022-11-20T09:00:49;100515.56;;;0.17;85.08
31082;BME280;17737;52.586;13.284;2022-11-20T09:03:17;100511.66;;;0.10;84.25
31082;BME280;17737;52.586;13.284;2022-11-20T09:05:45;100516.31;;;0.06;85.61
31082;BME280;17737;52.586;13.284;2022-11-20T09:08:13;100518.00;;;0.20;84.56
31082;BME280;17737;52.586;13.284;2022-11-20T09:10:42;100512.69;;;0.07;85.12
31082;BME280;17737;52.586;13.284;2022-11-20T09:13:10;100510.28;;;0.17;85.44
31082;BME280;17737;52.586;13.284;2022-11-20T09:15:37;100504.41;;;0.24;84.93
31082;BME280;17737;52.586;13.284;2022-11-20T09:18:05;100513.03;;;0.15;85.02
31082;BME280;17737;52.586;13.284;2022-11-20T09:20:33;100512.28;;;0.13;84.18
31082;BME280;17737;52.586;13.284;2022-11-20T09:23:01;100516.81;;;0.24;85.09
31082;BME280;17737;52.586;13.284;2022-11-20T09:25:29;100515.97;;;0.36;84.19
31082;BME280;17737;52.586;13.284;2022-11-20T09:27:58;100516.25;;;0.31;84.27
31082;BME280;17737;52.586;13.284;2022-11-20T09:30:26;100520.19;;;0.26;84.28
31082;BME280;17737;52.586;13.284;2022-11-20T09:32:54;100516.50;;;0.28;83.67
31082;BME280;17737;52.586;13.284;2022-11-20T09:35:23;100514.47;;;0.19;84.33
31082;BME280;17737;52.586;13.284;2022-11-20T09:37:51;100517.47;;;0.27;84.57
31082;BME280;17737;52.586;13.284;2022-11-20T09:40:20;100505.56;;;0.33;84.34
31082;BME280;17737;52.586;13.284;2022-11-20T09:42:54;100502.88;;;0.45;84.89
31082;BME280;17737;52.586;13.284;2022-11-20T09:45:37;100514.84;;;0.51;83.35
31082;BME280;17737;52.586;13.284;2022-11-20T09:48:35;100507.22;;;0.46;84.52
31082;BME280;17737;52.586;13.284;2022-11-20T09:51:11;100499.50;;;0.43;83.82
31082;BME280;17737;52.586;13.284;2022-11-20T09:53:52;100505.94;;;0.52;83.67
31082;BME280;17737;52.586;13.284;2022-11-20T09:56:24;100501.72;;;0.49;83.92
31082;BME280;17737;52.586;13.284;2022-11-20T09:58:55;100497.88;;;0.53;83.90
31082;BME280;17737;52.586;13.284;2022-11-20T10:01:31;100492.78;;;0.50;83.02
31082;BME280;17737;52.586;13.284;2022-11-20T10:04:02;100493.97;;;0.46;83.30
31082;BME280;17737;52.586;13.284;2022-11-20T10:06:32;100489.22;;;0.39;83.31
31082;BME280;17737;52.586;13.284;2022-11-20T10:09:16;100484.97;;;0.49;83.68
31082;BME280;17737;52.586;13.284;2022-11-20T10:11:51;100484.84;;;0.50;83.97
31082;BME280;17737;52.586;13.284;2022-11-20T10:14:30;100487.66;;;0.60;83.53
31082;BME280;17737;52.586;13.284;2022-11-20T10:17:12;100487.13;;;0.67;83.17
31082;BME280;17737;52.586;13.284;2022-11-20T10:19:51;100490.66;;;0.55;82.87
31082;BME280;17737;52.586;13.284;2022-11-20T10:22:32;100484.38;;;0.56;83.28
31082;BME280;17737;52.586;13.284;2022-11-20T10:25:06;100474.13;;;0.52;83.46
31082;BME280;17737;52.586;13.284;2022-11-20T10:28:00;100467.78;;;0.54;84.40
31082;BME280;17737;52.586;13.284;2022-11-20T10:30:36;100469.22;;;0.58;82.97
31082;BME280;17737;52.586;13.284;2022-11-20T10:33:13;100464.81;;;0.46;82.74
31082;BME280;17737;52.586;13.284;2022-11-20T10:35:45;100467.25;;;0.49;83.08
31082;BME280;17737;52.586;13.284;2022-11-20T10:38:19;100458.59;;;0.35;82.96
31082;BME280;17737;52.586;13.284;2022-11-20T10:40:51;100459.00;;;0.41;82.66
31082;BME280;17737;52.586;13.284;2022-11-20T10:43:32;100459.47;;;0.59;82.46
31082;BME280;17737;52.586;13.284;2022-11-20T10:46:03;100450.22;;;0.64;82.78
31082;BME280;17737;52.586;13.284;2022-11-20T10:48:36;100455.31;;;0.67;82.20
31082;BME280;17737;52.586;13.284;2022-11-20T10:51:21;100456.53;;;0.74;82.45
31082;BME280;17737;52.586;13.284;2022-11-20T10:53:57;100455.09;;;1.05;81.88
31082;BME280;17737;52.586;13.284;2022-11-20T10:56:33;100461.16;;;1.07;81.91
31082;BME280;17737;52.586;13.284;2022-11-20T13:49:18;100383.00;;;0.42;84.94
31082;BME280;17737;52.586;13.284;2022-11-20T13:51:50;100381.34;;;0.52;84.89
31082;BME280;17737;52.586;13.284;2022-11-20T13:54:43;100385.91;;;0.50;85.10
31082;BME280;17737;52.586;13.284;2022-11-20T14:00:15;100386.53;;;0.53;84.35
31082;BME280;17737;52.586;13.284;2022-11-20T14:02:46;100380.50;;;0.51;84.84
31082;BME280;17737;52.586;13.284;2022-11-20T14:05:21;100388.06;;;0.45;85.12
31082;BME280;17737;52.586;13.284;2022-11-20T14:07:52;100380.84;;;0.47;86.03
31082;BME280;17737;52.586;13.284;2022-11-20T14:10:23;100379.56;;;0.52;85.48
31082;BME280;17737;52.586;13.284;2022-11-20T14:12:58;100380.41;;;0.53;84.77
31082;BME280;17737;52.586;13.284;2022-11-20T14:15:28;100383.88;;;0.53;85.35
31082;BME280;17737;52.586;13.284;2022-11-20T14:17:57;100380.50;;;0.51;85.74
31082;BME280;17737;52.586;13.284;2022-11-20T14:20:28;100377.81;;;0.64;85.27
31082;BME280;17737;52.586;13.284;2022-11-20T14:22:57;100374.53;;;0.60;85.03
31082;BME280;17737;52.586;13.284;2022-11-20T14:25:26;100375.69;;;0.56;85.33
31082;BME280;17737;52.586;13.284;2022-11-20T14:27:56;100377.84;;;0.51;84.70
31082;BME280;17737;52.586;13.284;2022-11-20T14:30:26;100374.50;;;0.49;84.89
31082;BME280;17737;52.586;13.284;2022-11-20T14:32:56;100377.84;;;0.51;84.44
31082;BME280;17737;52.586;13.284;2022-11-20T14:35:30;100378.94;;;0.49;84.60
31082;BME280;17737;52.586;13.284;2022-11-20T14:37:58;100375.81;;;0.55;84.92
31082;BME280;17737;52.586;13.284;2022-11-20T14:40:28;100368.97;;;0.52;84.89
31082;BME280;17737;52.586;13.284;2022-11-20T14:42:58;100375.69;;;0.56;85.00
31082;BME280;17737;52.586;13.284;2022-11-20T14:45:26;100364.03;;;0.59;85.22
31082;BME280;17737;52.586;13.284;2022-11-20T14:47:56;100362.69;;;0.53;85.14
31082;BME280;17737;52.586;13.284;2022-11-20T14:50:27;100361.03;;;0.63;84.86
31082;BME280;17737;52.586;13.284;2022-11-20T14:52:58;100362.13;;;0.61;85.01
31082;BME280;17737;52.586;13.284;2022-11-20T14:55:29;100359.59;;;0.59;84.75
31082;BME280;17737;52.586;13.284;2022-11-20T14:57:59;100355.34;;;0.57;84.92
31082;BME280;17737;52.586;13.284;2022-11-20T15:00:27;100360.03;;;0.53;84.68
31082;BME280;17737;52.586;13.284;2022-11-20T15:02:55;100358.47;;;0.51;84.94
31082;BME280;17737;52.586;13.284;2022-11-20T15:05:24;100364.59;;;0.51;85.33
31082;BME280;17737;52.586;13.284;2022-11-20T15:08:08;100356.66;;;0.51;85.37
31082;BME280;17737;52.586;13.284;2022-11-20T15:10:37;100361.75;;;0.54;85.20
31082;BME280;17737;52.586;13.284;2022-11-20T15:13:11;100361.13;;;0.51;85.09
31082;BME280;17737;52.586;13.284;2022-11-20T15:15:44;100353.56;;;0.57;84.85
31082;BME280;17737;52.586;13.284;2022-11-20T15:18:16;100353.69;;;0.56;85.20
31082;BME280;17737;52.586;13.284;2022-11-20T15:20:44;100361.75;;;0.54;85.08
31082;BME280;17737;52.586;13.284;2022-11-20T15:23:15;100355.22;;;0.47;85.00
31082;BME280;17737;52.586;13.284;2022-11-20T15:25:45;100358.13;;;0.55;84.86
31082;BME280;17737;52.586;13.284;2022-11-20T15:28:17;100356.66;;;0.51;84.96
31082;BME280;17737;52.586;13.284;2022-11-20T15:30:46;100353.69;;;0.56;84.72
31082;BME280;17737;52.586;13.284;2022-11-20T15:33:15;100343.19;;;0.54;84.95
31082;BME280;17737;52.586;13.284;2022-11-20T15:35:43;100346.84;;;0.64;85.11
31082;BME280;17737;52.586;13.284;2022-11-20T15:38:11;100342.22;;;0.55;84.96
31082;BME280;17737;52.586;13.284;2022-11-20T15:40:40;100337.41;;;0.60;84.76
31082;BME280;17737;52.586;13.284;2022-11-20T15:43:08;100335.94;;;0.56;84.77
31082;BME280;17737;52.586;13.284;2022-11-20T15:45:41;100332.34;;;0.57;84.73
31082;BME280;17737;52.586;13.284;2022-11-20T15:48:12;100338.09;;;0.51;84.62
31082;BME280;17737;52.586;13.284;2022-11-20T15:50:50;100328.94;;;0.44;84.50
31082;BME280;17737;52.586;13.284;2022-11-20T15:53:19;100324.56;;;0.32;84.53